Big Bear Station Historical Data
Daily Summary for October 3, 2017 Units:  English    Metric   Both
Next Day »
Daily Weekly Monthly Yearly Custom
  High: Low: Average:
Temperature: 61.5 °F 38.3 °F 48.9 °F
Dew Point: 42.0 °F 3.3 °F 24.4 °F
Humidity: 87% 18% 42%
Wind Speed: 9.4mph 0.0mph 2.2mph
Wind Gust: -999.0mph - -
Wind- - WSW
Pressure: 30.09 in 29.95 in -
Precipitation: 0.00 in    
Historical Graphs
 
 
Tabular Data for October 3, 2017
Time Temperature Dew Point Pressure Wind Wind Speed Wind Gust Humidity Rainfall Rate (Hourly)
00:11 38.3 °F 32.7 °F 29.97 in Calm   -999.0 mph 80% 0 in
00:26 39.4 °F 32.5 °F 29.96 in Calm   -999.0 mph 76% 0 in
00:41 39.9 °F 31.6 °F 29.96 in Calm   -999.0 mph 72% 0 in
00:56 40.5 °F 31.8 °F 29.96 in Calm   -999.0 mph 71% 0 in
01:11 41.4 °F 31.3 °F 29.96 in Calm   -999.0 mph 67% 0 in
01:27 41.2 °F 30.3 °F 29.96 in Calm   -999.0 mph 65% 0 in
01:42 41.2 °F 29.6 °F 29.96 in Calm   -999.0 mph 63% 0 in
01:57 41.2 °F 28.8 °F 29.96 in Calm   -999.0 mph 61% 0 in
02:12 41.0 °F 28.2 °F 29.96 in Calm   -999.0 mph 60% 0 in
02:27 41.5 °F 28.6 °F 29.96 in SE 1.7 mph -999.0 mph 60% 0 in
02:43 42.1 °F 29.6 °F 29.96 in Calm   -999.0 mph 61% 0 in
02:58 43.3 °F 29.1 °F 29.95 in Calm   -999.0 mph 57% 0 in
03:13 44.4 °F 26.4 °F 29.95 in Calm   -999.0 mph 49% 0 in
03:28 45.1 °F 26.1 °F 29.95 in NNW 3.2 mph -999.0 mph 47% 0 in
03:43 44.6 °F 26.1 °F 29.95 in NNW 1.7 mph -999.0 mph 48% 0 in
03:59 44.1 °F 26.1 °F 29.95 in Calm   -999.0 mph 49% 0 in
04:14 44.1 °F 26.1 °F 29.95 in NNW 1.1 mph -999.0 mph 49% 0 in
04:29 44.2 °F 24.7 °F 29.95 in NE 1.1 mph -999.0 mph 46% 0 in
04:44 43.0 °F 21.5 °F 29.96 in Calm   -999.0 mph 42% 0 in
05:00 42.8 °F 20.7 °F 29.96 in Calm   -999.0 mph 41% 0 in
05:15 42.8 °F 18.3 °F 29.96 in Calm   -999.0 mph 37% 0 in
05:30 42.6 °F 20.5 °F 29.96 in Calm   -999.0 mph 41% 0 in
05:45 42.3 °F 15.9 °F 29.96 in SSW 1.7 mph -999.0 mph 34% 0 in
06:00 43.0 °F 12.9 °F 29.96 in NNW 3.2 mph -999.0 mph 29% 0 in
06:16 44.8 °F 11.1 °F 29.96 in Calm   -999.0 mph 25% 0 in
06:31 45.0 °F 10.3 °F 29.96 in Calm   -999.0 mph 24% 0 in
06:46 45.5 °F 10.8 °F 29.96 in Calm   -999.0 mph 24% 0 in
07:01 44.8 °F 12.0 °F 29.96 in ESE 1.7 mph -999.0 mph 26% 0 in
07:16 45.1 °F 10.4 °F 29.96 in Calm   -999.0 mph 24% 0 in
07:32 45.5 °F 9.8 °F 29.97 in NNW 2.2 mph -999.0 mph 23% 0 in
07:47 46.4 °F 10.6 °F 29.97 in NNE 3.7 mph -999.0 mph 23% 0 in
08:02 47.8 °F 9.7 °F 29.97 in NNE 1.7 mph -999.0 mph 21% 0 in
08:17 48.4 °F 11.3 °F 29.97 in SE 1.7 mph -999.0 mph 22% 0 in
08:32 48.9 °F 10.6 °F 29.98 in Calm   -999.0 mph 21% 0 in
08:48 49.8 °F 14.4 °F 29.98 in WNW 3.7 mph -999.0 mph 24% 0 in
09:03 50.5 °F 14.0 °F 29.98 in NW 4.7 mph -999.0 mph 23% 0 in
09:19 51.1 °F 15.5 °F 29.98 in North 3.2 mph -999.0 mph 24% 0 in
09:34 51.4 °F 17.6 °F 29.99 in NNW 3.7 mph -999.0 mph 26% 0 in
09:49 52.2 °F 19.2 °F 29.99 in West 2.2 mph -999.0 mph 27% 0 in
10:04 51.6 °F 25.5 °F 29.99 in NE 3.7 mph -999.0 mph 36% 0 in
10:20 52.3 °F 26.8 °F 29.99 in NW 5.8 mph -999.0 mph 37% 0 in
10:35 56.8 °F 17.2 °F 29.99 in WSW 2.2 mph -999.0 mph 21% 0 in
10:50 57.0 °F 26.6 °F 29.99 in West 3.2 mph -999.0 mph 31% 0 in
11:07 58.8 °F 25.7 °F 29.99 in NNW 1.1 mph -999.0 mph 28% 0 in
11:22 60.6 °F 16.8 °F 29.99 in South 3.7 mph -999.0 mph 18% 0 in
11:37 60.6 °F 23.6 °F 29.98 in West 2.2 mph -999.0 mph 24% 0 in
11:52 59.2 °F 31.6 °F 29.99 in SSW 3.2 mph -999.0 mph 35% 0 in
12:08 57.2 °F 32.5 °F 29.99 in NNW 2.7 mph -999.0 mph 39% 0 in
12:23 58.1 °F 32.6 °F 29.99 in NNW 7.3 mph -999.0 mph 38% 0 in
12:38 58.5 °F 33.6 °F 29.99 in NNW 6.3 mph -999.0 mph 39% 0 in
12:53 59.9 °F 32.9 °F 30.00 in ESE 6.8 mph -999.0 mph 36% 0 in
13:08 61.5 °F 30.6 °F 29.99 in WNW 2.7 mph -999.0 mph 31% 0 in
13:24 59.4 °F 33.8 °F 29.99 in NNW 6.3 mph -999.0 mph 38% 0 in
13:40 58.8 °F 35.8 °F 29.99 in SW 6.3 mph -999.0 mph 42% 0 in
13:55 59.7 °F 36.0 °F 29.99 in NNW 3.2 mph -999.0 mph 41% 0 in
14:10 58.5 °F 34.9 °F 29.99 in NW 3.7 mph -999.0 mph 41% 0 in
14:25 57.7 °F 32.9 °F 29.99 in West 2.7 mph -999.0 mph 39% 0 in
14:41 57.9 °F 31.8 °F 29.99 in WNW 4.2 mph -999.0 mph 37% 0 in
14:56 58.3 °F 34.1 °F 29.99 in NW 6.8 mph -999.0 mph 40% 0 in
15:12 57.0 °F 37.5 °F 29.99 in NNW 3.7 mph -999.0 mph 48% 0 in
15:27 56.7 °F 38.8 °F 29.99 in SSE 2.2 mph -999.0 mph 51% 0 in
15:42 55.4 °F 39.5 °F 29.99 in NW 9.4 mph -999.0 mph 55% 0 in
15:57 55.0 °F 36.7 °F 29.99 in Calm   -999.0 mph 50% 0 in
16:13 55.6 °F 34.6 °F 29.99 in Calm   -999.0 mph 45% 0 in
16:28 55.8 °F 33.0 °F 29.99 in West 1.7 mph -999.0 mph 42% 0 in
16:43 55.2 °F 27.3 °F 29.99 in SW 3.7 mph -999.0 mph 34% 0 in
16:58 55.9 °F 30.0 °F 29.99 in South 2.2 mph -999.0 mph 37% 0 in
17:14 54.5 °F 30.7 °F 29.99 in WSW 1.7 mph -999.0 mph 40% 0 in
17:29 53.2 °F 34.5 °F 29.99 in NW 2.7 mph -999.0 mph 49% 0 in
17:44 52.0 °F 35.9 °F 30.00 in NW 3.7 mph -999.0 mph 54% 0 in
18:00 50.0 °F 41.3 °F 30.00 in West 1.7 mph -999.0 mph 72% 0 in
18:15 47.8 °F 41.9 °F 30.00 in West 3.7 mph -999.0 mph 80% 0 in
18:30 46.6 °F 42.0 °F 30.00 in NW 6.8 mph -999.0 mph 84% 0 in
18:45 45.9 °F 41.9 °F 30.01 in NW 6.8 mph -999.0 mph 86% 0 in
19:01 45.3 °F 41.7 °F 30.01 in NNE 4.2 mph -999.0 mph 87% 0 in
19:16 44.8 °F 40.9 °F 30.03 in WNW 2.2 mph -999.0 mph 86% 0 in
19:31 44.6 °F 39.1 °F 30.04 in WNW 3.7 mph -999.0 mph 81% 0 in
19:46 46.4 °F 27.3 °F 30.04 in NW 4.7 mph -999.0 mph 47% 0 in
20:01 46.6 °F 23.6 °F 30.04 in Calm   -999.0 mph 40% 0 in
20:17 46.4 °F 24.0 °F 30.05 in WNW 2.2 mph -999.0 mph 41% 0 in
20:32 46.8 °F 19.2 °F 30.06 in NNE 2.7 mph -999.0 mph 33% 0 in
20:47 46.0 °F 17.0 °F 30.06 in Calm   -999.0 mph 31% 0 in
21:02 46.6 °F 14.4 °F 30.06 in Calm   -999.0 mph 27% 0 in
21:18 46.2 °F 13.2 °F 30.06 in Calm   -999.0 mph 26% 0 in
21:33 45.1 °F 15.5 °F 30.06 in SSE 2.2 mph -999.0 mph 30% 0 in
21:48 45.9 °F 9.1 °F 30.06 in NNE 1.7 mph -999.0 mph 22% 0 in
22:03 46.4 °F 8.5 °F 30.06 in NNW 2.2 mph -999.0 mph 21% 0 in
22:19 44.4 °F 8.9 °F 30.07 in South 1.7 mph -999.0 mph 23% 0 in
22:34 44.4 °F 7.9 °F 30.07 in South 1.1 mph -999.0 mph 22% 0 in
22:49 44.4 °F 6.9 °F 30.07 in Calm   -999.0 mph 21% 0 in
23:04 44.8 °F 5.0 °F 30.08 in WSW 1.1 mph -999.0 mph 19% 0 in
23:19 43.0 °F 6.7 °F 30.08 in SSW 1.1 mph -999.0 mph 22% 0 in
23:35 44.1 °F 4.4 °F 30.08 in Calm   -999.0 mph 19% 0 in
23:50 42.8 °F 3.3 °F 30.09 in ESE 1.7 mph -999.0 mph 19% 0 in
Big Bear CA Weather